createdAt,value
2022-07-29T00:00:45.595Z,100819.41
2022-07-29T00:01:50.359Z,100822.97
2022-07-29T00:02:52.281Z,100818.47
2022-07-29T00:03:56.858Z,100824.03
2022-07-29T00:04:58.838Z,100818.66
2022-07-29T00:06:03.351Z,100814.25
2022-07-29T00:07:05.446Z,100819.53
2022-07-29T00:08:12.510Z,100824.03
2022-07-29T00:09:14.659Z,100823.28
2022-07-29T00:10:19.258Z,100823.38
2022-07-29T00:11:21.102Z,100825.31
2022-07-29T00:12:26.977Z,100823.72
2022-07-29T00:13:32.234Z,100827.25
2022-07-29T00:14:37.119Z,100821.03
2022-07-29T00:15:39.097Z,100818.44
2022-07-29T00:16:43.705Z,100815.88
2022-07-29T00:17:45.583Z,100823.91
2022-07-29T00:18:49.955Z,100812.44
2022-07-29T00:19:51.813Z,100824.13
2022-07-29T00:20:56.235Z,100821.66
2022-07-29T00:21:58.039Z,100818.13
2022-07-29T00:23:02.907Z,100830.78
2022-07-29T00:24:04.802Z,100822.72
2022-07-29T00:25:09.558Z,100818.44
2022-07-29T00:26:11.403Z,100829.16
2022-07-29T00:27:15.818Z,100827.44
2022-07-29T00:28:17.683Z,100824.84
2022-07-29T00:29:37.368Z,100826.66
2022-07-29T00:30:39.177Z,100821.41
2022-07-29T00:31:43.747Z,100825.91
2022-07-29T00:32:45.564Z,100824.31
2022-07-29T00:33:49.959Z,100813.69
2022-07-29T00:35:06.797Z,100819.06
2022-07-29T00:36:08.634Z,100821.66
2022-07-29T00:37:10.430Z,100819.81
2022-07-29T00:38:15.786Z,100818.84
2022-07-29T00:39:17.692Z,100817.13
2022-07-29T00:40:23.366Z,100816.28
2022-07-29T00:41:25.555Z,100817.13
2022-07-29T00:42:29.941Z,100811.78
2022-07-29T00:43:34.398Z,100810.06
2022-07-29T00:44:39.599Z,100807.28
2022-07-29T00:45:44.669Z,100804.69
2022-07-29T00:46:46.601Z,100812.75
2022-07-29T00:47:51.313Z,100793.13
2022-07-29T00:48:53.147Z,100802.97
2022-07-29T00:49:57.813Z,100802.00
2022-07-29T00:51:02.534Z,100806.63
2022-07-29T00:52:07.390Z,100801.25
2022-07-29T00:53:11.858Z,100799.53
2022-07-29T00:54:13.911Z,100793.31
2022-07-29T00:55:18.984Z,100803.19
2022-07-29T00:56:20.901Z,100806.81
2022-07-29T00:57:25.399Z,100804.25
2022-07-29T00:58:27.292Z,100801.66
2022-07-29T00:59:35.077Z,100799.94
2022-07-29T01:00:41.880Z,100803.56
2022-07-29T01:01:43.790Z,100800.06
2022-07-29T01:02:49.342Z,100791.16
2022-07-29T01:03:51.188Z,100805.63
2022-07-29T01:04:56.363Z,100803.81
2022-07-29T01:06:00.824Z,100798.56
2022-07-29T01:07:03.067Z,100802.09
2022-07-29T01:08:07.912Z,100791.28
2022-07-29T01:09:10.338Z,100794.81
2022-07-29T01:10:15.022Z,100799.31
2022-07-29T01:11:17.200Z,100800.16
2022-07-29T01:12:23.984Z,100781.03
2022-07-29T01:13:28.431Z,100793.09
2022-07-29T01:14:30.258Z,100796.53
2022-07-29T01:15:34.705Z,100788.69
2022-07-29T01:16:41.052Z,100796.63
2022-07-29T01:18:03.715Z,100793.94
2022-07-29T01:19:09.214Z,100791.16
2022-07-29T01:20:15.641Z,100791.28
2022-07-29T01:21:52.212Z,100793.09
2022-07-29T01:23:15.287Z,100784.09
2022-07-29T01:24:31.519Z,100787.72
2022-07-29T01:25:36.431Z,100785.03
2022-07-29T01:26:51.461Z,100790.50
2022-07-29T01:28:13.551Z,100788.69
2022-07-29T01:29:17.950Z,100788.78
2022-07-29T01:30:20.312Z,100781.72
2022-07-29T01:31:59.465Z,100785.44
2022-07-29T01:33:06.183Z,100790.72
2022-07-29T01:34:08.701Z,100781.91
2022-07-29T01:35:14.745Z,100782.78
2022-07-29T01:36:36.772Z,100784.69
2022-07-29T01:38:01.375Z,100780.84
2022-07-29T01:39:23.428Z,100783.44
2022-07-29T01:40:38.753Z,100780.66
2022-07-29T01:41:41.777Z,100787.81
2022-07-29T01:42:47.062Z,100786.00
2022-07-29T01:43:48.818Z,100782.47
2022-07-29T01:44:58.492Z,100783.44
2022-07-29T01:46:02.031Z,100780.75
2022-07-29T01:47:09.292Z,100788.78
2022-07-29T01:48:13.840Z,100791.56
2022-07-29T01:49:19.260Z,100783.53
2022-07-29T01:50:21.188Z,100777.22
2022-07-29T01:51:28.386Z,100786.22
2022-07-29T01:52:35.959Z,100780.84
2022-07-29T01:53:46.497Z,100788.13
2022-07-29T01:54:56.351Z,100772.06
2022-07-29T01:56:01.019Z,100769.28
2022-07-29T01:57:03.110Z,100772.72
2022-07-29T01:58:07.840Z,100782.56
2022-07-29T01:59:09.705Z,100771.84
2022-07-29T02:00:15.726Z,100768.22
2022-07-29T02:01:17.515Z,100769.06
2022-07-29T02:02:22.023Z,100769.16
2022-07-29T02:03:27.205Z,100766.50
2022-07-29T02:04:30.318Z,100778.16
2022-07-29T02:05:34.924Z,100771.19
2022-07-29T02:06:36.977Z,100780.19
2022-07-29T02:07:41.817Z,100768.59
2022-07-29T02:08:43.598Z,100779.31
2022-07-29T02:09:48.092Z,100776.56
2022-07-29T02:10:49.919Z,100781.03
2022-07-29T02:11:55.320Z,100779.13
2022-07-29T02:12:57.671Z,100773.78
2022-07-29T02:14:02.076Z,100774.63
2022-07-29T02:15:04.380Z,100769.38
2022-07-29T02:16:10.094Z,100773.78
2022-07-29T02:17:12.262Z,100764.97
2022-07-29T02:18:18.825Z,100764.09
2022-07-29T02:19:21.043Z,100764.00
2022-07-29T02:20:26.149Z,100768.59
2022-07-29T02:21:28.299Z,100768.59
2022-07-29T02:22:33.501Z,100769.47
2022-07-29T02:23:45.075Z,100769.47
2022-07-29T02:24:55.717Z,100763.25
2022-07-29T02:25:58.090Z,100764.09
2022-07-29T02:27:02.723Z,100760.56
2022-07-29T02:28:04.837Z,100756.16
2022-07-29T02:29:09.202Z,100752.53
2022-07-29T02:30:12.560Z,100756.06
2022-07-29T02:31:17.147Z,100760.69
2022-07-29T02:32:19.051Z,100761.72
2022-07-29T02:33:23.488Z,100764.34
2022-07-29T02:34:25.375Z,100763.38
2022-07-29T02:35:34.875Z,100765.94
2022-07-29T02:36:36.890Z,100757.88
2022-07-29T02:37:41.314Z,100762.38
2022-07-29T02:38:52.932Z,100760.69
2022-07-29T02:39:57.789Z,100771.28
2022-07-29T02:41:00.081Z,100761.53
2022-07-29T02:42:08.050Z,100760.56
2022-07-29T02:43:12.618Z,100767.66
2022-07-29T02:44:18.535Z,100766.69
2022-07-29T02:45:20.570Z,100761.34
2022-07-29T02:46:29.060Z,100764.78
2022-07-29T02:47:46.834Z,100761.13
2022-07-29T02:48:50.714Z,100766.50
2022-07-29T02:50:02.474Z,100768.22
2022-07-29T02:51:43.607Z,100772.72
2022-07-29T02:53:00.278Z,100769.94
2022-07-29T02:55:36.048Z,100772.50
2022-07-29T02:56:38.752Z,100775.94
2022-07-29T02:58:02.823Z,100776.78
2022-07-29T02:59:05.794Z,100769.50
2022-07-29T03:00:10.950Z,100770.34
2022-07-29T03:01:21.322Z,100768.53
2022-07-29T03:02:26.662Z,100767.38
2022-07-29T03:03:30.626Z,100765.44
2022-07-29T03:04:35.445Z,100767.06
2022-07-29T03:05:37.281Z,100768.56
2022-07-29T03:06:43.219Z,100760.19
2022-07-29T03:07:49.456Z,100771.44
2022-07-29T03:08:51.295Z,100772.97
2022-07-29T03:09:55.691Z,100769.97
2022-07-29T03:10:57.502Z,100766.94
2022-07-29T03:12:01.909Z,100765.78
2022-07-29T03:13:04.483Z,100769.53
2022-07-29T03:14:09.079Z,100772.09
2022-07-29T03:15:11.667Z,100775.91
2022-07-29T03:16:16.632Z,100774.19
2022-07-29T03:17:18.502Z,100784.41
2022-07-29T03:18:22.911Z,100782.94
2022-07-29T03:19:24.884Z,100795.91
2022-07-29T03:20:29.843Z,100809.72
2022-07-29T03:21:31.919Z,100816.22
2022-07-29T03:22:36.399Z,100822.00
2022-07-29T03:23:38.206Z,100839.25
2022-07-29T03:24:42.612Z,100851.25
2022-07-29T03:25:44.500Z,100861.84
2022-07-29T03:26:48.901Z,100892.84
2022-07-29T03:27:53.307Z,100900.97
2022-07-29T03:28:55.924Z,100912.91
2022-07-29T03:30:00.323Z,100925.75
2022-07-29T03:31:02.203Z,100937.16
2022-07-29T03:32:08.426Z,100946.69
2022-07-29T03:33:13.320Z,100953.25
2022-07-29T03:34:18.544Z,100966.00
2022-07-29T03:35:21.009Z,100969.53
2022-07-29T03:36:25.874Z,100974.72
2022-07-29T03:37:27.689Z,100984.13
2022-07-29T03:38:32.475Z,100976.13
2022-07-29T03:39:36.649Z,100989.53
2022-07-29T03:40:49.014Z,100990.25
2022-07-29T03:41:51.039Z,100986.69
2022-07-29T03:42:55.559Z,100992.81
2022-07-29T03:43:57.675Z,100995.16
2022-07-29T03:45:02.764Z,101005.91
2022-07-29T03:46:05.131Z,101016.16
2022-07-29T03:47:13.277Z,101015.66
2022-07-29T03:48:15.499Z,101021.28
2022-07-29T03:49:20.358Z,101018.25
2022-07-29T03:50:22.520Z,101016.38
2022-07-29T03:51:34.066Z,101020.34
2022-07-29T03:52:38.735Z,101013.59
2022-07-29T03:53:43.121Z,101021.28
2022-07-29T03:54:44.989Z,101034.56
2022-07-29T03:55:59.329Z,101026.69
2022-07-29T03:57:01.371Z,101033.44
2022-07-29T03:58:05.865Z,101030.41
2022-07-29T03:59:07.662Z,101020.25
2022-07-29T04:00:12.512Z,101019.19
2022-07-29T04:01:14.358Z,101022.97
2022-07-29T04:02:21.946Z,101030.19
2022-07-29T04:03:25.638Z,101029.28
2022-07-29T04:04:30.123Z,101031.81
2022-07-29T04:05:31.923Z,101041.88
2022-07-29T04:06:46.091Z,101047.06
2022-07-29T04:07:50.327Z,101038.09
2022-07-29T04:08:55.055Z,101041.81
2022-07-29T04:09:56.933Z,101037.56
2022-07-29T04:11:01.745Z,101044.63
2022-07-29T04:12:06.262Z,101042.34
2022-07-29T04:13:08.148Z,101043.59
2022-07-29T04:14:12.875Z,101047.56
2022-07-29T04:15:14.915Z,101047.47
2022-07-29T04:16:19.324Z,101049.28
2022-07-29T04:17:23.796Z,101049.81
2022-07-29T04:18:25.637Z,101058.31
2022-07-29T04:19:30.174Z,101041.38
2022-07-29T04:20:31.984Z,101049.88
2022-07-29T04:21:40.651Z,101058.78
2022-07-29T04:22:42.539Z,101046.50
2022-07-29T04:23:53.822Z,101057.97
2022-07-29T04:24:59.093Z,101055.41
2022-07-29T04:26:10.705Z,101050.47
2022-07-29T04:27:12.792Z,101054.03
2022-07-29T04:28:17.242Z,101061.19
2022-07-29T04:29:19.110Z,101056.31
2022-07-29T04:30:23.565Z,101061.97
2022-07-29T04:31:28.074Z,101049.19
2022-07-29T04:32:30.024Z,101059.53
2022-07-29T04:33:34.439Z,101049.94
2022-07-29T04:34:39.248Z,101046.91
2022-07-29T04:35:50.569Z,101046.06
2022-07-29T04:36:57.027Z,101044.69
2022-07-29T04:37:58.834Z,101050.22
2022-07-29T04:39:03.304Z,101047.19
2022-07-29T04:40:05.435Z,101048.75
2022-07-29T04:41:10.201Z,101044.75
2022-07-29T04:42:13.277Z,101058.47
2022-07-29T04:43:21.219Z,101060.59
2022-07-29T04:44:28.968Z,101058.19
2022-07-29T04:45:31.126Z,101063.47
2022-07-29T04:46:35.788Z,101064.34
2022-07-29T04:47:37.686Z,101063.03
2022-07-29T04:48:42.516Z,101060.34
2022-07-29T04:49:44.414Z,101054.63
2022-07-29T04:50:48.877Z,101057.56
2022-07-29T04:51:53.363Z,101058.88
2022-07-29T04:52:55.191Z,101069.06
2022-07-29T04:53:59.592Z,101069.06
2022-07-29T04:55:01.386Z,101073.69
2022-07-29T04:56:05.997Z,101072.03
2022-07-29T04:57:07.828Z,101062.59
2022-07-29T04:58:12.210Z,101059.91
2022-07-29T04:59:14.096Z,101056.34
2022-07-29T05:00:18.770Z,101070.41
2022-07-29T05:01:20.730Z,101066.66
2022-07-29T05:02:25.550Z,101056.75
2022-07-29T05:03:27.379Z,101061.56
2022-07-29T05:04:31.771Z,101068.84
2022-07-29T05:05:33.636Z,101061.66
2022-07-29T05:06:38.082Z,101061.31
2022-07-29T05:07:39.908Z,101063.28
2022-07-29T05:08:44.306Z,101066.47
2022-07-29T05:09:46.179Z,101069.41
2022-07-29T05:10:50.631Z,101048.31
2022-07-29T05:11:52.487Z,101051.44
2022-07-29T05:12:56.940Z,101048.88
2022-07-29T05:13:58.747Z,101051.59
2022-07-29T05:15:03.170Z,101052.91
2022-07-29T05:16:05.205Z,101056.13
2022-07-29T05:17:09.643Z,101050.78
2022-07-29T05:18:11.455Z,101052.00
2022-07-29T05:19:15.920Z,101039.22
2022-07-29T05:20:19.452Z,101045.88
2022-07-29T05:21:24.842Z,101047.31
2022-07-29T05:22:26.662Z,101046.13
2022-07-29T05:23:31.062Z,101039.19
2022-07-29T05:24:32.875Z,101034.41
2022-07-29T05:25:43.521Z,101034.31
2022-07-29T05:26:46.626Z,101033.81
2022-07-29T05:27:51.122Z,101037.13
2022-07-29T05:28:53.032Z,101033.28
2022-07-29T05:29:57.760Z,101027.00
2022-07-29T05:30:59.633Z,101012.09
2022-07-29T05:32:04.291Z,101021.06
2022-07-29T05:33:06.123Z,101020.63
2022-07-29T05:34:10.520Z,101020.78
2022-07-29T05:35:13.769Z,101019.81
2022-07-29T05:36:18.221Z,101019.25
2022-07-29T05:37:20.665Z,101020.25
2022-07-29T05:38:25.185Z,101008.53
2022-07-29T05:39:47.278Z,101018.53
2022-07-29T05:40:51.467Z,101011.25
2022-07-29T05:41:53.398Z,101016.69
2022-07-29T05:42:57.833Z,101019.81
2022-07-29T05:43:59.750Z,101011.22
2022-07-29T05:45:04.636Z,101014.66
2022-07-29T05:46:06.620Z,101017.66
2022-07-29T05:47:11.071Z,101006.97
2022-07-29T05:48:13.242Z,101014.66
2022-07-29T05:49:26.949Z,101014.53
2022-07-29T05:50:31.843Z,101004.84
2022-07-29T05:51:34.392Z,101007.69
2022-07-29T05:52:38.867Z,101004.69
2022-07-29T05:53:40.732Z,101015.53
2022-07-29T05:54:45.186Z,101006.41
2022-07-29T05:55:47.034Z,101012.69
2022-07-29T05:56:51.541Z,101008.66
2022-07-29T05:57:56.159Z,101014.41
2022-07-29T05:58:58.030Z,101012.81
2022-07-29T06:00:02.474Z,101004.41
2022-07-29T06:01:14.228Z,101004.41
2022-07-29T06:02:18.831Z,101008.97
2022-07-29T06:03:20.889Z,101005.84
2022-07-29T06:04:25.471Z,101004.66
2022-07-29T06:05:27.366Z,101007.09
2022-07-29T06:06:31.772Z,101006.22
2022-07-29T06:07:36.163Z,100996.09
2022-07-29T06:08:38.462Z,101007.38
2022-07-29T06:09:43.090Z,101000.81
2022-07-29T06:10:44.985Z,101001.53
2022-07-29T06:11:49.400Z,100997.13
2022-07-29T06:12:51.337Z,101005.25
2022-07-29T06:13:55.733Z,101004.97
2022-07-29T06:15:00.783Z,101007.25
2022-07-29T06:16:03.321Z,101004.53
2022-07-29T06:17:08.487Z,101005.25
2022-07-29T06:18:11.200Z,101004.94
2022-07-29T06:19:15.659Z,101015.50
2022-07-29T06:20:20.472Z,101007.22
2022-07-29T06:21:31.694Z,101014.34
2022-07-29T06:22:33.558Z,101001.47
2022-07-29T06:23:37.967Z,101013.44
2022-07-29T06:24:44.909Z,101008.59
2022-07-29T06:25:46.781Z,101011.59
2022-07-29T06:26:51.208Z,101009.88
2022-07-29T06:27:53.391Z,101002.41
2022-07-29T06:28:57.922Z,100997.44
2022-07-29T06:29:59.793Z,101017.00
2022-07-29T06:31:04.267Z,101008.09
2022-07-29T06:32:06.445Z,101012.25
2022-07-29T06:33:11.054Z,101014.22
2022-07-29T06:34:13.116Z,101011.63
2022-07-29T06:35:41.290Z,101021.63
2022-07-29T06:36:43.028Z,101015.31
2022-07-29T06:37:44.864Z,101023.91
2022-07-29T06:38:52.015Z,101019.88
2022-07-29T06:40:14.294Z,101018.31
2022-07-29T06:41:19.181Z,101022.13
2022-07-29T06:42:21.090Z,101010.13
2022-07-29T06:43:26.358Z,101020.53
2022-07-29T06:44:30.885Z,101028.53
2022-07-29T06:45:35.679Z,101018.69
2022-07-29T06:46:40.229Z,101023.50
2022-07-29T06:47:42.128Z,101013.84
2022-07-29T06:48:46.858Z,101035.78
2022-07-29T06:49:49.887Z,101029.00
2022-07-29T06:50:54.688Z,101025.72
2022-07-29T06:51:57.039Z,101024.41
2022-07-29T06:53:01.499Z,101021.34
2022-07-29T06:54:06.934Z,101023.06
2022-07-29T06:55:09.078Z,101027.34
2022-07-29T06:56:14.958Z,101024.56
2022-07-29T06:57:19.419Z,101021.94
2022-07-29T06:58:21.618Z,101027.06
2022-07-29T06:59:35.820Z,101012.88
2022-07-29T07:00:38.272Z,101028.88
2022-07-29T07:01:43.776Z,101029.88
2022-07-29T07:02:45.705Z,101019.00
2022-07-29T07:03:51.896Z,101024.03
2022-07-29T07:04:53.791Z,101019.72
2022-07-29T07:05:58.450Z,101027.56
2022-07-29T07:07:04.715Z,101017.41
2022-07-29T07:08:06.787Z,101036.81
2022-07-29T07:09:11.242Z,101026.31
2022-07-29T07:10:13.088Z,101032.31
2022-07-29T07:11:17.498Z,101025.72
2022-07-29T07:12:19.374Z,101030.50
2022-07-29T07:13:23.849Z,101023.75
2022-07-29T07:14:27.697Z,101026.84
2022-07-29T07:15:39.792Z,101015.34
2022-07-29T07:16:44.709Z,101022.84
2022-07-29T07:17:46.587Z,101024.25
2022-07-29T07:18:55.996Z,101024.25
2022-07-29T07:19:57.811Z,101019.38
2022-07-29T07:21:02.395Z,101026.03
2022-07-29T07:22:04.253Z,101021.94
2022-07-29T07:23:09.751Z,101023.47
2022-07-29T07:24:14.564Z,101023.16
2022-07-29T07:25:18.339Z,101023.00
2022-07-29T07:26:22.888Z,101028.81
2022-07-29T07:27:24.727Z,101024.06
2022-07-29T07:28:29.367Z,101020.16
2022-07-29T07:29:31.252Z,101032.47
2022-07-29T07:30:35.660Z,101029.03
2022-07-29T07:31:37.792Z,101030.59
2022-07-29T07:32:42.270Z,101016.00
2022-07-29T07:33:46.661Z,101017.00
2022-07-29T07:34:48.508Z,101019.41
2022-07-29T07:35:52.937Z,101029.28
2022-07-29T07:36:54.775Z,101027.22
2022-07-29T07:37:59.804Z,101018.59
2022-07-29T07:39:01.981Z,101018.28
2022-07-29T07:40:06.924Z,101023.91
2022-07-29T07:41:11.335Z,101026.72
2022-07-29T07:42:14.945Z,101017.19
2022-07-29T07:43:19.426Z,101031.94
2022-07-29T07:44:21.528Z,101036.91
2022-07-29T07:45:26.182Z,101035.16
2022-07-29T07:46:30.709Z,101029.72
2022-07-29T07:47:32.762Z,101034.66
2022-07-29T07:48:38.744Z,101038.75
2022-07-29T07:49:41.710Z,101027.75
2022-07-29T07:50:46.419Z,101031.16
2022-07-29T07:51:50.691Z,101036.81
2022-07-29T07:52:58.716Z,101029.88
2022-07-29T07:54:04.140Z,101038.66
2022-07-29T07:55:06.252Z,101037.72
2022-07-29T07:56:12.129Z,101032.94
2022-07-29T07:57:14.670Z,101036.34
2022-07-29T07:58:19.087Z,101034.00
2022-07-29T07:59:20.872Z,101035.03
2022-07-29T08:00:25.794Z,101026.41
2022-07-29T08:01:30.274Z,101028.31
2022-07-29T08:02:52.668Z,101033.81
2022-07-29T08:03:54.602Z,101037.56
2022-07-29T08:05:00.538Z,101044.41
2022-07-29T08:06:02.558Z,101037.22
2022-07-29T08:07:07.010Z,101037.41
2022-07-29T08:08:12.074Z,101033.16
2022-07-29T08:09:28.827Z,101025.00
2022-07-29T08:10:46.898Z,101022.78
2022-07-29T08:11:52.350Z,101028.75
2022-07-29T08:12:56.986Z,101027.56
2022-07-29T08:13:58.924Z,101030.63
2022-07-29T08:15:03.357Z,101031.78
2022-07-29T08:16:12.821Z,101032.16
2022-07-29T08:17:17.353Z,101030.28
2022-07-29T08:18:19.170Z,101028.03
2022-07-29T08:19:23.592Z,101022.59
2022-07-29T08:20:26.186Z,101030.44
2022-07-29T08:21:30.789Z,101010.66
2022-07-29T08:22:32.635Z,101032.47
2022-07-29T08:23:47.211Z,101025.31
2022-07-29T08:24:55.682Z,101009.97
2022-07-29T08:26:00.200Z,101016.16
2022-07-29T08:27:02.020Z,101024.16
2022-07-29T08:28:06.547Z,101014.94
2022-07-29T08:29:08.455Z,101032.16
2022-07-29T08:30:12.981Z,101030.66
2022-07-29T08:31:15.054Z,101024.34
2022-07-29T08:32:43.472Z,101023.28
2022-07-29T08:33:44.057Z,101031.84
2022-07-29T08:34:48.449Z,101023.81
2022-07-29T08:35:51.383Z,101033.94
2022-07-29T08:36:55.898Z,101030.50
2022-07-29T08:37:58.028Z,101021.97
2022-07-29T08:39:02.729Z,101032.56
2022-07-29T08:40:04.726Z,101034.94
2022-07-29T08:41:09.131Z,101044.81
2022-07-29T08:42:14.909Z,101032.53
2022-07-29T08:43:16.703Z,101036.81
2022-07-29T08:44:30.628Z,101033.22
2022-07-29T08:45:35.741Z,101032.53
2022-07-29T08:46:42.959Z,101034.38
2022-07-29T08:47:47.689Z,101042.41
2022-07-29T08:48:52.214Z,101044.47
2022-07-29T08:49:56.691Z,101043.41
2022-07-29T08:50:58.507Z,101044.09
2022-07-29T08:52:04.485Z,101039.13
2022-07-29T08:53:07.137Z,101045.25
2022-07-29T08:54:16.058Z,101037.16
2022-07-29T08:55:18.190Z,101034.69
2022-07-29T08:56:26.047Z,101024.22
2022-07-29T08:57:31.200Z,101039.38
2022-07-29T08:58:36.928Z,101026.97
2022-07-29T08:59:42.788Z,101038.22
2022-07-29T09:00:51.124Z,101028.81
2022-07-29T09:01:55.925Z,101039.75
2022-07-29T09:03:00.266Z,101030.88
2022-07-29T09:04:05.506Z,101029.97
2022-07-29T09:05:10.306Z,101030.25
2022-07-29T09:06:14.555Z,101025.56
2022-07-29T09:07:19.668Z,101018.22
2022-07-29T09:08:21.512Z,101017.16
2022-07-29T09:09:26.101Z,101006.66
2022-07-29T09:10:29.779Z,101020.34
2022-07-29T09:11:35.554Z,101017.59
2022-07-29T09:12:39.950Z,101018.72
2022-07-29T09:13:42.945Z,101019.56
2022-07-29T09:14:47.432Z,101018.09
2022-07-29T09:15:49.813Z,101022.19
2022-07-29T09:16:56.031Z,101024.69
2022-07-29T09:17:59.504Z,101029.75
2022-07-29T09:19:03.924Z,101018.66
2022-07-29T09:20:46.879Z,101038.59
2022-07-29T09:22:04.067Z,101016.75
2022-07-29T09:23:09.013Z,101019.56
2022-07-29T09:24:16.970Z,101021.22
2022-07-29T09:25:40.240Z,101022.63
2022-07-29T09:26:45.425Z,101019.66
2022-07-29T09:27:53.560Z,101023.69
2022-07-29T09:28:55.457Z,101020.16
2022-07-29T09:30:01.233Z,101016.91
2022-07-29T09:31:03.575Z,101002.22
2022-07-29T09:32:09.944Z,101012.72
2022-07-29T09:33:14.426Z,101022.88
2022-07-29T09:34:29.360Z,101014.44
2022-07-29T09:35:34.239Z,101016.22
2022-07-29T09:36:48.926Z,101020.50
2022-07-29T09:37:53.548Z,101018.63
2022-07-29T09:39:00.025Z,101023.94
2022-07-29T09:40:08.951Z,101011.00
2022-07-29T09:41:15.165Z,101017.34
2022-07-29T09:42:20.804Z,101010.22
2022-07-29T09:43:22.656Z,101016.66
2022-07-29T09:44:27.242Z,101018.63
2022-07-29T09:45:30.442Z,101023.09
2022-07-29T09:46:35.049Z,101020.72
2022-07-29T09:47:46.063Z,101021.09
2022-07-29T09:49:11.497Z,100993.88
2022-07-29T09:50:16.019Z,101020.41
2022-07-29T09:51:20.760Z,101019.38
2022-07-29T09:52:28.269Z,101011.47
2022-07-29T09:53:37.561Z,101020.41
2022-07-29T09:54:42.434Z,101013.91
2022-07-29T09:55:48.382Z,101019.34
2022-07-29T09:56:53.209Z,101013.59
2022-07-29T09:57:57.730Z,101003.81
2022-07-29T09:59:09.077Z,101002.50
2022-07-29T10:00:15.004Z,101013.56
2022-07-29T10:01:19.487Z,101009.03
2022-07-29T10:02:23.728Z,101007.66
2022-07-29T10:03:28.630Z,101002.78
2022-07-29T10:04:40.309Z,100999.81
2022-07-29T10:05:44.814Z,101013.63
2022-07-29T10:07:03.537Z,100999.50
2022-07-29T10:08:09.867Z,100997.06
2022-07-29T10:09:12.181Z,100990.81
2022-07-29T10:10:22.238Z,100995.28
2022-07-29T10:11:26.735Z,100995.56
2022-07-29T10:12:55.318Z,100990.59
2022-07-29T10:13:57.170Z,100996.31
2022-07-29T10:15:01.651Z,100996.66
2022-07-29T10:16:03.521Z,100999.66
2022-07-29T10:17:08.538Z,100992.25
2022-07-29T10:18:13.378Z,100992.63
2022-07-29T10:19:15.233Z,100983.44
2022-07-29T10:20:19.984Z,100996.25
2022-07-29T10:21:34.903Z,100985.09
2022-07-29T10:22:52.884Z,101000.50
2022-07-29T10:24:01.314Z,100989.97
2022-07-29T10:25:06.264Z,100984.22
2022-07-29T10:26:08.726Z,100996.72
2022-07-29T10:27:13.736Z,100986.19
2022-07-29T10:28:17.036Z,100989.34
2022-07-29T10:29:21.560Z,100989.78
2022-07-29T10:30:27.023Z,101001.16
2022-07-29T10:31:37.433Z,100998.25
2022-07-29T10:32:54.466Z,100995.66
2022-07-29T10:34:02.207Z,100992.56
2022-07-29T10:35:24.888Z,100994.75
2022-07-29T10:36:48.015Z,100990.44
2022-07-29T10:37:54.013Z,100991.13
2022-07-29T10:39:18.346Z,100991.50
2022-07-29T10:40:44.511Z,100984.44
2022-07-29T10:42:07.288Z,100996.22
2022-07-29T10:43:26.820Z,100994.13
2022-07-29T10:44:34.390Z,100979.63
2022-07-29T10:45:36.713Z,100991.31
2022-07-29T10:46:41.753Z,100983.69
2022-07-29T10:47:48.098Z,100983.16
2022-07-29T10:49:08.120Z,100974.19
2022-07-29T10:50:16.983Z,100973.50
2022-07-29T10:51:19.809Z,100972.31
2022-07-29T10:52:26.634Z,100976.16
2022-07-29T10:54:07.505Z,100976.50
2022-07-29T10:55:11.980Z,100977.66
2022-07-29T10:56:35.147Z,100981.81
2022-07-29T10:57:53.341Z,100980.03
2022-07-29T10:59:17.546Z,100974.28
2022-07-29T11:00:28.974Z,100973.19
2022-07-29T11:01:37.714Z,100970.50
2022-07-29T11:02:41.917Z,100967.41
2022-07-29T11:03:53.498Z,100965.09
2022-07-29T11:04:58.988Z,100965.09
2022-07-29T11:06:08.788Z,100969.72
2022-07-29T11:07:11.711Z,100962.13
2022-07-29T11:08:19.945Z,100960.66
2022-07-29T11:09:30.171Z,100953.72
2022-07-29T11:10:37.262Z,100956.31
2022-07-29T11:11:51.408Z,100956.97
2022-07-29T11:12:53.751Z,100952.53
2022-07-29T11:13:58.388Z,100948.63
2022-07-29T11:15:01.580Z,100956.09
2022-07-29T11:16:07.814Z,100944.34
2022-07-29T11:17:14.093Z,100948.38
2022-07-29T11:18:17.464Z,100951.44
2022-07-29T11:19:29.821Z,100950.22
2022-07-29T11:20:36.502Z,100948.03
2022-07-29T11:21:53.551Z,100945.59
2022-07-29T11:23:05.375Z,100940.69
2022-07-29T11:24:14.748Z,100949.56
2022-07-29T11:26:45.712Z,100958.47
2022-07-29T11:27:48.631Z,100947.69
2022-07-29T11:28:53.127Z,100952.03
2022-07-29T11:30:01.233Z,100948.72
2022-07-29T11:31:03.395Z,100947.50
2022-07-29T11:32:15.969Z,100944.63
2022-07-29T11:33:54.514Z,100950.66
2022-07-29T11:35:17.574Z,100938.94
2022-07-29T11:36:20.154Z,100951.03
2022-07-29T11:37:32.878Z,100943.44
2022-07-29T11:38:44.486Z,100946.97
2022-07-29T11:39:50.959Z,100943.16
2022-07-29T11:41:38.217Z,100945.06
2022-07-29T11:44:08.927Z,100943.84
2022-07-29T11:45:44.312Z,100943.94
2022-07-29T11:48:29.166Z,100937.66
2022-07-29T11:49:34.309Z,100944.00
2022-07-29T11:50:44.398Z,100946.00
2022-07-29T11:51:51.494Z,100949.63
2022-07-29T11:52:55.911Z,100947.50
2022-07-29T11:54:05.270Z,100944.56
2022-07-29T11:55:09.993Z,100939.38
2022-07-29T11:56:17.062Z,100938.41
2022-07-29T11:57:19.659Z,100937.34
2022-07-29T11:58:26.600Z,100930.84
2022-07-29T11:59:33.425Z,100944.63
2022-07-29T12:00:43.667Z,100934.91
2022-07-29T12:02:12.045Z,100934.78
2022-07-29T12:03:35.387Z,100937.97
2022-07-29T12:04:51.221Z,100928.00
2022-07-29T12:05:57.505Z,100929.72
2022-07-29T12:07:00.469Z,100928.97
2022-07-29T12:07:02.023Z,100944.00
2022-07-29T12:08:14.736Z,100931.81
2022-07-29T12:09:16.866Z,100936.13
2022-07-29T12:10:30.009Z,100937.16
2022-07-29T12:11:32.779Z,100930.75
2022-07-29T12:12:39.665Z,100927.50
2022-07-29T12:13:44.060Z,100925.44
2022-07-29T12:14:47.652Z,100930.69
2022-07-29T12:16:00.054Z,100928.63
2022-07-29T12:17:02.199Z,100939.47
2022-07-29T12:18:16.191Z,100934.13
2022-07-29T12:19:20.272Z,100930.38
2022-07-29T12:20:35.111Z,100932.34
2022-07-29T12:21:52.360Z,100929.88
2022-07-29T12:23:01.091Z,100937.06
2022-07-29T12:24:09.143Z,100928.63
2022-07-29T12:25:32.910Z,100922.69
2022-07-29T12:26:38.284Z,100927.91
2022-07-29T12:27:44.238Z,100923.69
2022-07-29T12:28:49.420Z,100918.97
2022-07-29T12:29:57.848Z,100915.19
2022-07-29T12:31:03.135Z,100922.75
2022-07-29T12:32:10.310Z,100918.09
2022-07-29T12:33:21.141Z,100914.84
2022-07-29T12:34:26.165Z,100927.56
2022-07-29T12:35:30.623Z,100908.25
2022-07-29T12:36:35.074Z,100920.03
2022-07-29T12:37:40.705Z,100916.53
2022-07-29T12:38:45.994Z,100924.09
2022-07-29T12:39:48.440Z,100923.19
2022-07-29T12:40:52.995Z,100920.06